sensor_id;sensor_type;location;lat;lon;timestamp;temperature;humidity
48206;DHT22;33995;48.202;16.260;2023-05-10T00:02:20;12.90;99.90
48206;DHT22;33995;48.202;16.260;2023-05-10T00:04:48;12.90;99.90
48206;DHT22;33995;48.202;16.260;2023-05-10T00:07:15;13.00;99.90
48206;DHT22;33995;48.202;16.260;2023-05-10T00:09:44;12.90;99.90
48206;DHT22;33995;48.202;16.260;2023-05-10T00:12:11;12.90;99.90
48206;DHT22;33995;48.202;16.260;2023-05-10T00:14:38;12.80;99.90
48206;DHT22;33995;48.202;16.260;2023-05-10T00:17:05;12.80;99.90
48206;DHT22;33995;48.202;16.260;2023-05-10T00:19:33;12.70;99.90
48206;DHT22;33995;48.202;16.260;2023-05-10T00:22:01;12.60;99.90
48206;DHT22;33995;48.202;16.260;2023-05-10T00:24:29;12.70;99.90
48206;DHT22;33995;48.202;16.260;2023-05-10T00:26:57;12.60;99.90
48206;DHT22;33995;48.202;16.260;2023-05-10T00:29:26;12.60;99.90
48206;DHT22;33995;48.202;16.260;2023-05-10T00:31:54;12.60;99.90
48206;DHT22;33995;48.202;16.260;2023-05-10T00:34:22;12.60;99.90
48206;DHT22;33995;48.202;16.260;2023-05-10T00:36:49;12.60;99.90
48206;DHT22;33995;48.202;16.260;2023-05-10T00:39:19;12.60;99.90
48206;DHT22;33995;48.202;16.260;2023-05-10T00:41:46;12.50;99.90
48206;DHT22;33995;48.202;16.260;2023-05-10T00:44:13;12.50;99.90
48206;DHT22;33995;48.202;16.260;2023-05-10T00:46:40;12.50;99.90
48206;DHT22;33995;48.202;16.260;2023-05-10T00:49:09;12.50;99.90
48206;DHT22;33995;48.202;16.260;2023-05-10T00:51:36;12.40;99.90
48206;DHT22;33995;48.202;16.260;2023-05-10T00:54:04;12.40;99.90
48206;DHT22;33995;48.202;16.260;2023-05-10T00:56:34;12.40;99.90
48206;DHT22;33995;48.202;16.260;2023-05-10T00:59:01;12.30;99.90
48206;DHT22;33995;48.202;16.260;2023-05-10T01:01:29;12.30;99.90
48206;DHT22;33995;48.202;16.260;2023-05-10T01:03:58;12.30;99.90
48206;DHT22;33995;48.202;16.260;2023-05-10T01:06:25;12.30;99.90
48206;DHT22;33995;48.202;16.260;2023-05-10T01:08:52;12.20;99.90
48206;DHT22;33995;48.202;16.260;2023-05-10T01:11:20;12.20;99.90
48206;DHT22;33995;48.202;16.260;2023-05-10T01:13:54;12.20;99.90
48206;DHT22;33995;48.202;16.260;2023-05-10T01:16:24;12.20;99.90
48206;DHT22;33995;48.202;16.260;2023-05-10T01:18:54;12.10;99.90
48206;DHT22;33995;48.202;16.260;2023-05-10T01:21:37;12.10;99.90
48206;DHT22;33995;48.202;16.260;2023-05-10T01:33:01;11.90;99.90
48206;DHT22;33995;48.202;16.260;2023-05-10T01:35:40;11.80;99.90
48206;DHT22;33995;48.202;16.260;2023-05-10T01:44:16;11.70;99.90
48206;DHT22;33995;48.202;16.260;2023-05-10T01:46:51;11.60;99.90
48206;DHT22;33995;48.202;16.260;2023-05-10T01:49:29;11.60;99.90
48206;DHT22;33995;48.202;16.260;2023-05-10T01:52:06;11.50;99.90
48206;DHT22;33995;48.202;16.260;2023-05-10T01:54:37;11.50;99.90
48206;DHT22;33995;48.202;16.260;2023-05-10T01:57:06;11.40;99.90
48206;DHT22;33995;48.202;16.260;2023-05-10T01:59:38;11.40;99.90
48206;DHT22;33995;48.202;16.260;2023-05-10T02:02:27;11.30;99.90
48206;DHT22;33995;48.202;16.260;2023-05-10T02:04:56;11.40;99.90
48206;DHT22;33995;48.202;16.260;2023-05-10T02:07:28;11.30;99.90
48206;DHT22;33995;48.202;16.260;2023-05-10T02:09:56;11.40;99.90
48206;DHT22;33995;48.202;16.260;2023-05-10T02:12:24;11.40;99.90
48206;DHT22;33995;48.202;16.260;2023-05-10T02:14:52;11.30;99.90
48206;DHT22;33995;48.202;16.260;2023-05-10T02:17:21;11.30;99.90
48206;DHT22;33995;48.202;16.260;2023-05-10T02:19:49;11.10;99.90
48206;DHT22;33995;48.202;16.260;2023-05-10T02:22:19;11.10;99.90
48206;DHT22;33995;48.202;16.260;2023-05-10T02:24:50;11.10;99.90
48206;DHT22;33995;48.202;16.260;2023-05-10T02:27:19;11.10;99.90
48206;DHT22;33995;48.202;16.260;2023-05-10T02:29:48;11.00;99.90
48206;DHT22;33995;48.202;16.260;2023-05-10T02:32:16;11.00;99.90
48206;DHT22;33995;48.202;16.260;2023-05-10T02:34:49;11.00;99.90
48206;DHT22;33995;48.202;16.260;2023-05-10T02:37:22;11.10;99.90
48206;DHT22;33995;48.202;16.260;2023-05-10T02:39:53;11.00;99.90
48206;DHT22;33995;48.202;16.260;2023-05-10T02:42:24;11.00;99.90
48206;DHT22;33995;48.202;16.260;2023-05-10T02:44:56;10.90;99.90
48206;DHT22;33995;48.202;16.260;2023-05-10T02:47:26;10.90;99.90
48206;DHT22;33995;48.202;16.260;2023-05-10T02:49:54;10.90;99.90
48206;DHT22;33995;48.202;16.260;2023-05-10T02:52:30;10.90;99.90
48206;DHT22;33995;48.202;16.260;2023-05-10T02:55:05;10.90;99.90
48206;DHT22;33995;48.202;16.260;2023-05-10T02:57:34;10.80;99.90
48206;DHT22;33995;48.202;16.260;2023-05-10T03:00:03;10.90;99.90
48206;DHT22;33995;48.202;16.260;2023-05-10T03:02:30;10.80;99.90
48206;DHT22;33995;48.202;16.260;2023-05-10T03:04:59;10.80;99.90
48206;DHT22;33995;48.202;16.260;2023-05-10T03:07:27;10.80;99.90
48206;DHT22;33995;48.202;16.260;2023-05-10T03:09:55;10.80;99.90
48206;DHT22;33995;48.202;16.260;2023-05-10T03:12:52;10.80;99.90
48206;DHT22;33995;48.202;16.260;2023-05-10T03:18:22;10.80;99.90
48206;DHT22;33995;48.202;16.260;2023-05-10T03:21:02;10.80;99.90
48206;DHT22;33995;48.202;16.260;2023-05-10T03:23:41;10.90;99.90
48206;DHT22;33995;48.202;16.260;2023-05-10T03:26:16;10.90;99.90
48206;DHT22;33995;48.202;16.260;2023-05-10T03:28:45;10.90;99.90
48206;DHT22;33995;48.202;16.260;2023-05-10T03:31:17;10.90;99.90
48206;DHT22;33995;48.202;16.260;2023-05-10T03:33:51;10.90;99.90
48206;DHT22;33995;48.202;16.260;2023-05-10T03:36:26;11.00;99.90
48206;DHT22;33995;48.202;16.260;2023-05-10T03:38:54;10.90;99.90
48206;DHT22;33995;48.202;16.260;2023-05-10T03:41:21;10.90;99.90
48206;DHT22;33995;48.202;16.260;2023-05-10T03:43:48;10.90;99.90
48206;DHT22;33995;48.202;16.260;2023-05-10T03:46:18;10.90;99.90
48206;DHT22;33995;48.202;16.260;2023-05-10T03:48:45;10.90;99.90
48206;DHT22;33995;48.202;16.260;2023-05-10T03:51:12;10.80;99.90
48206;DHT22;33995;48.202;16.260;2023-05-10T03:53:39;10.80;99.90
48206;DHT22;33995;48.202;16.260;2023-05-10T03:56:10;10.90;99.90
48206;DHT22;33995;48.202;16.260;2023-05-10T03:58:37;11.00;99.90
48206;DHT22;33995;48.202;16.260;2023-05-10T04:01:06;11.00;99.90
48206;DHT22;33995;48.202;16.260;2023-05-10T04:03:33;11.10;99.90
48206;DHT22;33995;48.202;16.260;2023-05-10T04:06:04;11.10;99.90
48206;DHT22;33995;48.202;16.260;2023-05-10T04:08:33;11.00;99.90
48206;DHT22;33995;48.202;16.260;2023-05-10T04:11:11;11.10;99.90
48206;DHT22;33995;48.202;16.260;2023-05-10T04:13:39;11.10;99.90
48206;DHT22;33995;48.202;16.260;2023-05-10T04:16:07;11.20;99.90
48206;DHT22;33995;48.202;16.260;2023-05-10T04:18:35;11.20;99.90
48206;DHT22;33995;48.202;16.260;2023-05-10T04:21:02;11.30;99.90
48206;DHT22;33995;48.202;16.260;2023-05-10T04:23:29;11.30;99.90
48206;DHT22;33995;48.202;16.260;2023-05-10T04:26:01;11.40;99.90
48206;DHT22;33995;48.202;16.260;2023-05-10T04:28:28;11.30;99.90
48206;DHT22;33995;48.202;16.260;2023-05-10T04:31:04;11.40;99.90
48206;DHT22;33995;48.202;16.260;2023-05-10T04:33:34;11.50;99.90
48206;DHT22;33995;48.202;16.260;2023-05-10T04:36:04;11.40;99.90
48206;DHT22;33995;48.202;16.260;2023-05-10T04:38:33;11.50;99.90
48206;DHT22;33995;48.202;16.260;2023-05-10T04:41:08;11.60;99.90
48206;DHT22;33995;48.202;16.260;2023-05-10T04:43:35;11.60;99.90
48206;DHT22;33995;48.202;16.260;2023-05-10T04:46:03;11.70;99.90
48206;DHT22;33995;48.202;16.260;2023-05-10T04:48:30;11.80;99.90
48206;DHT22;33995;48.202;16.260;2023-05-10T04:50:58;11.90;99.90
48206;DHT22;33995;48.202;16.260;2023-05-10T04:53:25;11.70;99.90
48206;DHT22;33995;48.202;16.260;2023-05-10T04:55:53;11.80;99.90
48206;DHT22;33995;48.202;16.260;2023-05-10T04:58:20;11.90;99.90
48206;DHT22;33995;48.202;16.260;2023-05-10T05:00:48;12.00;99.90
48206;DHT22;33995;48.202;16.260;2023-05-10T05:03:15;12.00;99.90
48206;DHT22;33995;48.202;16.260;2023-05-10T05:05:44;12.10;99.90
48206;DHT22;33995;48.202;16.260;2023-05-10T05:08:11;12.10;99.90
48206;DHT22;33995;48.202;16.260;2023-05-10T05:10:38;12.20;99.90
48206;DHT22;33995;48.202;16.260;2023-05-10T05:13:06;12.30;99.90
48206;DHT22;33995;48.202;16.260;2023-05-10T05:15:33;12.30;99.90
48206;DHT22;33995;48.202;16.260;2023-05-10T05:18:01;12.30;99.90
48206;DHT22;33995;48.202;16.260;2023-05-10T05:20:28;12.40;99.90
48206;DHT22;33995;48.202;16.260;2023-05-10T05:22:56;12.40;99.90
48206;DHT22;33995;48.202;16.260;2023-05-10T05:25:23;12.40;99.90
48206;DHT22;33995;48.202;16.260;2023-05-10T05:27:50;12.50;99.90
48206;DHT22;33995;48.202;16.260;2023-05-10T05:30:17;12.50;99.90
48206;DHT22;33995;48.202;16.260;2023-05-10T05:32:44;12.70;99.90
48206;DHT22;33995;48.202;16.260;2023-05-10T05:35:11;12.70;99.90
48206;DHT22;33995;48.202;16.260;2023-05-10T05:37:39;12.70;99.90
48206;DHT22;33995;48.202;16.260;2023-05-10T05:40:12;12.90;99.90
48206;DHT22;33995;48.202;16.260;2023-05-10T05:42:40;12.90;99.90
48206;DHT22;33995;48.202;16.260;2023-05-10T05:45:08;13.00;99.90
48206;DHT22;33995;48.202;16.260;2023-05-10T05:47:40;13.10;99.90
48206;DHT22;33995;48.202;16.260;2023-05-10T05:50:11;13.20;99.90
48206;DHT22;33995;48.202;16.260;2023-05-10T05:52:41;13.30;99.90
48206;DHT22;33995;48.202;16.260;2023-05-10T05:55:08;13.30;99.90
48206;DHT22;33995;48.202;16.260;2023-05-10T05:57:35;13.50;99.90
48206;DHT22;33995;48.202;16.260;2023-05-10T06:00:02;13.60;99.90
48206;DHT22;33995;48.202;16.260;2023-05-10T06:02:38;13.70;99.90
48206;DHT22;33995;48.202;16.260;2023-05-10T06:05:07;13.70;99.90
48206;DHT22;33995;48.202;16.260;2023-05-10T06:07:36;13.80;99.90
48206;DHT22;33995;48.202;16.260;2023-05-10T06:10:03;13.90;99.90
48206;DHT22;33995;48.202;16.260;2023-05-10T06:12:33;14.10;99.90
48206;DHT22;33995;48.202;16.260;2023-05-10T06:15:00;14.20;99.90
48206;DHT22;33995;48.202;16.260;2023-05-10T06:17:28;14.30;99.90
48206;DHT22;33995;48.202;16.260;2023-05-10T06:19:56;14.40;99.90
48206;DHT22;33995;48.202;16.260;2023-05-10T06:22:25;14.50;99.90
48206;DHT22;33995;48.202;16.260;2023-05-10T06:24:53;14.60;99.90
48206;DHT22;33995;48.202;16.260;2023-05-10T06:27:20;14.70;99.90
48206;DHT22;33995;48.202;16.260;2023-05-10T06:29:51;14.90;99.90
48206;DHT22;33995;48.202;16.260;2023-05-10T06:32:32;15.00;99.90
48206;DHT22;33995;48.202;16.260;2023-05-10T06:35:00;15.10;99.90
48206;DHT22;33995;48.202;16.260;2023-05-10T06:37:27;15.20;99.90
48206;DHT22;33995;48.202;16.260;2023-05-10T06:39:56;15.20;99.90
48206;DHT22;33995;48.202;16.260;2023-05-10T06:42:23;15.30;99.90
48206;DHT22;33995;48.202;16.260;2023-05-10T06:44:53;15.40;99.90
48206;DHT22;33995;48.202;16.260;2023-05-10T06:47:20;15.50;99.90
48206;DHT22;33995;48.202;16.260;2023-05-10T06:49:47;15.60;99.90
48206;DHT22;33995;48.202;16.260;2023-05-10T06:52:14;15.60;99.90
48206;DHT22;33995;48.202;16.260;2023-05-10T06:54:41;15.70;99.90
48206;DHT22;33995;48.202;16.260;2023-05-10T06:57:09;15.80;99.90
48206;DHT22;33995;48.202;16.260;2023-05-10T06:59:58;15.90;99.90
48206;DHT22;33995;48.202;16.260;2023-05-10T07:02:26;16.10;99.90
48206;DHT22;33995;48.202;16.260;2023-05-10T07:04:54;16.10;99.90
48206;DHT22;33995;48.202;16.260;2023-05-10T07:07:22;16.20;99.90
48206;DHT22;33995;48.202;16.260;2023-05-10T07:09:49;16.20;99.90
48206;DHT22;33995;48.202;16.260;2023-05-10T07:12:20;16.30;99.90
48206;DHT22;33995;48.202;16.260;2023-05-10T07:14:47;16.40;99.90
48206;DHT22;33995;48.202;16.260;2023-05-10T07:17:14;16.40;99.90
48206;DHT22;33995;48.202;16.260;2023-05-10T07:19:42;16.50;99.90
48206;DHT22;33995;48.202;16.260;2023-05-10T07:22:10;16.60;99.90
48206;DHT22;33995;48.202;16.260;2023-05-10T07:24:37;16.80;99.90
48206;DHT22;33995;48.202;16.260;2023-05-10T07:27:04;16.90;99.90
48206;DHT22;33995;48.202;16.260;2023-05-10T07:29:33;17.00;99.90
48206;DHT22;33995;48.202;16.260;2023-05-10T07:32:00;17.00;99.90
48206;DHT22;33995;48.202;16.260;2023-05-10T07:34:27;17.10;99.90
48206;DHT22;33995;48.202;16.260;2023-05-10T07:36:58;17.20;99.90
48206;DHT22;33995;48.202;16.260;2023-05-10T07:39:27;17.30;99.90
48206;DHT22;33995;48.202;16.260;2023-05-10T07:41:55;17.40;99.90
48206;DHT22;33995;48.202;16.260;2023-05-10T07:44:22;17.50;99.90
48206;DHT22;33995;48.202;16.260;2023-05-10T07:46:51;17.50;99.90
48206;DHT22;33995;48.202;16.260;2023-05-10T07:49:18;17.60;99.90
48206;DHT22;33995;48.202;16.260;2023-05-10T07:51:49;17.70;99.90
48206;DHT22;33995;48.202;16.260;2023-05-10T07:54:17;17.60;99.90
48206;DHT22;33995;48.202;16.260;2023-05-10T07:56:45;17.70;99.90
48206;DHT22;33995;48.202;16.260;2023-05-10T07:59:17;17.70;99.90
48206;DHT22;33995;48.202;16.260;2023-05-10T08:01:45;17.80;99.90
48206;DHT22;33995;48.202;16.260;2023-05-10T08:04:12;17.80;99.90
48206;DHT22;33995;48.202;16.260;2023-05-10T08:06:40;17.90;99.90
48206;DHT22;33995;48.202;16.260;2023-05-10T08:09:09;17.90;99.90
48206;DHT22;33995;48.202;16.260;2023-05-10T08:11:37;17.80;99.90
48206;DHT22;33995;48.202;16.260;2023-05-10T08:14:06;17.80;99.90
48206;DHT22;33995;48.202;16.260;2023-05-10T08:16:33;17.80;99.90
48206;DHT22;33995;48.202;16.260;2023-05-10T08:19:01;17.70;99.90
48206;DHT22;33995;48.202;16.260;2023-05-10T08:21:29;17.70;99.90
48206;DHT22;33995;48.202;16.260;2023-05-10T08:23:56;17.70;99.90
48206;DHT22;33995;48.202;16.260;2023-05-10T08:26:26;17.80;99.90
48206;DHT22;33995;48.202;16.260;2023-05-10T08:28:53;17.80;99.90
48206;DHT22;33995;48.202;16.260;2023-05-10T08:31:20;17.70;99.90
48206;DHT22;33995;48.202;16.260;2023-05-10T08:33:47;17.70;99.90
48206;DHT22;33995;48.202;16.260;2023-05-10T08:36:14;17.70;99.90
48206;DHT22;33995;48.202;16.260;2023-05-10T08:38:49;17.80;99.90
48206;DHT22;33995;48.202;16.260;2023-05-10T08:41:20;17.90;99.90
48206;DHT22;33995;48.202;16.260;2023-05-10T08:43:48;18.10;99.90
48206;DHT22;33995;48.202;16.260;2023-05-10T08:46:17;18.20;99.90
48206;DHT22;33995;48.202;16.260;2023-05-10T08:48:45;18.20;99.90
48206;DHT22;33995;48.202;16.260;2023-05-10T08:51:15;18.20;99.90
48206;DHT22;33995;48.202;16.260;2023-05-10T08:53:45;18.30;99.90
48206;DHT22;33995;48.202;16.260;2023-05-10T08:56:15;18.30;99.90
48206;DHT22;33995;48.202;16.260;2023-05-10T08:58:48;18.20;99.90
48206;DHT22;33995;48.202;16.260;2023-05-10T09:01:16;18.20;99.90
48206;DHT22;33995;48.202;16.260;2023-05-10T09:03:46;18.20;99.90
48206;DHT22;33995;48.202;16.260;2023-05-10T09:06:14;18.10;99.90
48206;DHT22;33995;48.202;16.260;2023-05-10T09:08:43;18.10;99.90
48206;DHT22;33995;48.202;16.260;2023-05-10T09:11:12;18.10;99.90
48206;DHT22;33995;48.202;16.260;2023-05-10T09:13:41;18.00;99.90
48206;DHT22;33995;48.202;16.260;2023-05-10T09:16:10;18.00;99.90
48206;DHT22;33995;48.202;16.260;2023-05-10T09:18:48;18.10;99.90
48206;DHT22;33995;48.202;16.260;2023-05-10T09:21:16;18.20;99.90
48206;DHT22;33995;48.202;16.260;2023-05-10T09:23:47;18.50;99.90
48206;DHT22;33995;48.202;16.260;2023-05-10T09:26:14;18.60;99.90
48206;DHT22;33995;48.202;16.260;2023-05-10T09:31:20;18.70;99.90
48206;DHT22;33995;48.202;16.260;2023-05-10T09:33:49;18.80;99.60
48206;DHT22;33995;48.202;16.260;2023-05-10T09:36:17;18.70;99.60
48206;DHT22;33995;48.202;16.260;2023-05-10T09:38:51;18.70;99.30
48206;DHT22;33995;48.202;16.260;2023-05-10T09:41:23;18.60;99.40
48206;DHT22;33995;48.202;16.260;2023-05-10T09:43:55;18.60;99.60
48206;DHT22;33995;48.202;16.260;2023-05-10T09:46:24;18.60;99.80
48206;DHT22;33995;48.202;16.260;2023-05-10T09:48:53;18.50;99.60
48206;DHT22;33995;48.202;16.260;2023-05-10T09:51:24;18.50;99.70
48206;DHT22;33995;48.202;16.260;2023-05-10T09:54:10;18.60;99.60
48206;DHT22;33995;48.202;16.260;2023-05-10T09:56:40;18.60;99.50
48206;DHT22;33995;48.202;16.260;2023-05-10T09:59:11;18.70;99.30
48206;DHT22;33995;48.202;16.260;2023-05-10T10:01:38;18.90;98.20
48206;DHT22;33995;48.202;16.260;2023-05-10T10:04:07;19.00;98.30
48206;DHT22;33995;48.202;16.260;2023-05-10T10:06:39;19.10;98.70
48206;DHT22;33995;48.202;16.260;2023-05-10T10:09:07;19.20;98.60
48206;DHT22;33995;48.202;16.260;2023-05-10T10:11:35;19.20;98.50
48206;DHT22;33995;48.202;16.260;2023-05-10T10:14:03;19.20;98.70
48206;DHT22;33995;48.202;16.260;2023-05-10T10:16:34;19.30;98.70
48206;DHT22;33995;48.202;16.260;2023-05-10T10:19:01;19.30;98.10
48206;DHT22;33995;48.202;16.260;2023-05-10T10:21:30;19.40;98.10
48206;DHT22;33995;48.202;16.260;2023-05-10T10:23:58;19.50;97.70
48206;DHT22;33995;48.202;16.260;2023-05-10T10:26:25;19.40;97.50
48206;DHT22;33995;48.202;16.260;2023-05-10T10:29:26;19.50;97.80
48206;DHT22;33995;48.202;16.260;2023-05-10T10:32:30;19.80;97.60
48206;DHT22;33995;48.202;16.260;2023-05-10T10:35:00;19.90;96.40
48206;DHT22;33995;48.202;16.260;2023-05-10T10:37:46;20.00;96.80
48206;DHT22;33995;48.202;16.260;2023-05-10T10:40:27;20.10;96.30
48206;DHT22;33995;48.202;16.260;2023-05-10T10:42:56;20.20;96.50
48206;DHT22;33995;48.202;16.260;2023-05-10T10:45:25;20.30;96.30
48206;DHT22;33995;48.202;16.260;2023-05-10T10:48:22;20.30;96.30
48206;DHT22;33995;48.202;16.260;2023-05-10T10:50:57;20.30;95.90
48206;DHT22;33995;48.202;16.260;2023-05-10T10:53:30;20.30;95.80
48206;DHT22;33995;48.202;16.260;2023-05-10T10:56:12;20.20;95.70
48206;DHT22;33995;48.202;16.260;2023-05-10T10:58:41;20.10;95.90
48206;DHT22;33995;48.202;16.260;2023-05-10T11:03:38;20.00;96.30
48206;DHT22;33995;48.202;16.260;2023-05-10T11:06:06;20.10;96.10
48206;DHT22;33995;48.202;16.260;2023-05-10T11:08:41;20.10;95.40
48206;DHT22;33995;48.202;16.260;2023-05-10T11:11:14;20.20;95.70
48206;DHT22;33995;48.202;16.260;2023-05-10T11:14:04;20.20;95.20
48206;DHT22;33995;48.202;16.260;2023-05-10T11:16:52;20.30;95.50
48206;DHT22;33995;48.202;16.260;2023-05-10T11:19:20;20.30;94.90
48206;DHT22;33995;48.202;16.260;2023-05-10T11:22:11;20.30;94.90
48206;DHT22;33995;48.202;16.260;2023-05-10T11:24:40;20.40;95.30
48206;DHT22;33995;48.202;16.260;2023-05-10T11:27:26;20.50;95.30
48206;DHT22;33995;48.202;16.260;2023-05-10T11:29:57;20.50;94.80
48206;DHT22;33995;48.202;16.260;2023-05-10T11:32:24;20.60;95.30
48206;DHT22;33995;48.202;16.260;2023-05-10T11:34:52;20.70;95.30
48206;DHT22;33995;48.202;16.260;2023-05-10T11:37:20;20.70;95.20
48206;DHT22;33995;48.202;16.260;2023-05-10T11:39:47;20.60;94.90
48206;DHT22;33995;48.202;16.260;2023-05-10T11:42:15;20.60;95.30
48206;DHT22;33995;48.202;16.260;2023-05-10T11:44:46;20.70;94.90
48206;DHT22;33995;48.202;16.260;2023-05-10T11:47:14;20.60;94.80
48206;DHT22;33995;48.202;16.260;2023-05-10T11:49:46;20.60;94.60
48206;DHT22;33995;48.202;16.260;2023-05-10T11:52:13;20.70;93.90
48206;DHT22;33995;48.202;16.260;2023-05-10T11:54:55;20.70;93.80
48206;DHT22;33995;48.202;16.260;2023-05-10T11:57:26;20.70;94.10
48206;DHT22;33995;48.202;16.260;2023-05-10T11:59:57;20.80;94.30
48206;DHT22;33995;48.202;16.260;2023-05-10T12:02:25;20.80;94.60
48206;DHT22;33995;48.202;16.260;2023-05-10T12:04:55;20.80;93.90
48206;DHT22;33995;48.202;16.260;2023-05-10T12:07:22;20.80;93.60
48206;DHT22;33995;48.202;16.260;2023-05-10T12:10:09;20.80;93.60
48206;DHT22;33995;48.202;16.260;2023-05-10T12:12:58;20.80;93.90
48206;DHT22;33995;48.202;16.260;2023-05-10T12:15:28;20.80;94.20
48206;DHT22;33995;48.202;16.260;2023-05-10T12:17:58;20.80;94.40
48206;DHT22;33995;48.202;16.260;2023-05-10T12:20:27;20.80;94.00
48206;DHT22;33995;48.202;16.260;2023-05-10T12:22:56;20.80;94.40
48206;DHT22;33995;48.202;16.260;2023-05-10T12:25:30;20.90;94.50
48206;DHT22;33995;48.202;16.260;2023-05-10T12:27:59;20.90;94.40
48206;DHT22;33995;48.202;16.260;2023-05-10T12:30:29;20.90;94.40
48206;DHT22;33995;48.202;16.260;2023-05-10T12:33:08;20.90;94.40
48206;DHT22;33995;48.202;16.260;2023-05-10T12:35:50;21.00;94.30
48206;DHT22;33995;48.202;16.260;2023-05-10T12:38:34;21.00;94.90
48206;DHT22;33995;48.202;16.260;2023-05-10T12:41:07;21.00;94.70
48206;DHT22;33995;48.202;16.260;2023-05-10T12:43:35;21.00;94.50
48206;DHT22;33995;48.202;16.260;2023-05-10T12:46:21;21.00;94.50
48206;DHT22;33995;48.202;16.260;2023-05-10T12:48:52;21.00;94.30
48206;DHT22;33995;48.202;16.260;2023-05-10T12:51:34;21.00;94.10
48206;DHT22;33995;48.202;16.260;2023-05-10T12:54:02;20.90;94.00
48206;DHT22;33995;48.202;16.260;2023-05-10T12:56:30;20.90;94.20
48206;DHT22;33995;48.202;16.260;2023-05-10T12:58:57;21.00;93.90
48206;DHT22;33995;48.202;16.260;2023-05-10T13:01:24;20.90;94.00
48206;DHT22;33995;48.202;16.260;2023-05-10T13:03:52;20.80;93.30
48206;DHT22;33995;48.202;16.260;2023-05-10T13:06:19;20.80;93.60
48206;DHT22;33995;48.202;16.260;2023-05-10T13:08:46;20.80;93.80
48206;DHT22;33995;48.202;16.260;2023-05-10T13:11:13;20.70;93.50
48206;DHT22;33995;48.202;16.260;2023-05-10T13:13:44;20.60;93.70
48206;DHT22;33995;48.202;16.260;2023-05-10T13:16:11;20.60;93.40
48206;DHT22;33995;48.202;16.260;2023-05-10T13:18:40;20.50;93.50
48206;DHT22;33995;48.202;16.260;2023-05-10T13:21:10;20.60;93.70
48206;DHT22;33995;48.202;16.260;2023-05-10T13:23:40;20.70;94.20
48206;DHT22;33995;48.202;16.260;2023-05-10T13:26:08;20.70;93.70
48206;DHT22;33995;48.202;16.260;2023-05-10T13:28:35;20.70;93.70
48206;DHT22;33995;48.202;16.260;2023-05-10T13:31:03;20.60;93.80
48206;DHT22;33995;48.202;16.260;2023-05-10T13:33:31;20.60;94.20
48206;DHT22;33995;48.202;16.260;2023-05-10T13:35:59;20.60;94.10
48206;DHT22;33995;48.202;16.260;2023-05-10T13:38:27;20.50;94.10
48206;DHT22;33995;48.202;16.260;2023-05-10T13:40:55;20.60;93.60
48206;DHT22;33995;48.202;16.260;2023-05-10T13:43:25;20.60;93.90
48206;DHT22;33995;48.202;16.260;2023-05-10T13:45:52;20.70;94.40
48206;DHT22;33995;48.202;16.260;2023-05-10T13:48:19;20.70;94.10
48206;DHT22;33995;48.202;16.260;2023-05-10T13:50:46;20.70;94.10
48206;DHT22;33995;48.202;16.260;2023-05-10T13:53:15;20.60;94.00
48206;DHT22;33995;48.202;16.260;2023-05-10T13:55:42;20.60;94.20
48206;DHT22;33995;48.202;16.260;2023-05-10T13:58:10;20.60;94.60
48206;DHT22;33995;48.202;16.260;2023-05-10T14:00:37;20.70;94.60
48206;DHT22;33995;48.202;16.260;2023-05-10T14:03:04;20.80;94.60
48206;DHT22;33995;48.202;16.260;2023-05-10T14:05:33;20.60;94.10
48206;DHT22;33995;48.202;16.260;2023-05-10T14:08:02;20.50;94.10
48206;DHT22;33995;48.202;16.260;2023-05-10T14:10:30;20.60;94.10
48206;DHT22;33995;48.202;16.260;2023-05-10T14:13:00;20.50;93.70
48206;DHT22;33995;48.202;16.260;2023-05-10T14:15:28;20.50;93.60
48206;DHT22;33995;48.202;16.260;2023-05-10T14:17:55;20.40;93.60
48206;DHT22;33995;48.202;16.260;2023-05-10T14:20:24;20.40;93.90
48206;DHT22;33995;48.202;16.260;2023-05-10T14:22:51;20.50;94.10
48206;DHT22;33995;48.202;16.260;2023-05-10T14:25:19;20.40;93.70
48206;DHT22;33995;48.202;16.260;2023-05-10T14:27:47;20.40;93.40
48206;DHT22;33995;48.202;16.260;2023-05-10T14:30:14;20.30;93.40
48206;DHT22;33995;48.202;16.260;2023-05-10T14:32:43;20.30;93.40
48206;DHT22;33995;48.202;16.260;2023-05-10T14:35:10;20.30;93.40
48206;DHT22;33995;48.202;16.260;2023-05-10T14:37:39;20.30;93.20
48206;DHT22;33995;48.202;16.260;2023-05-10T14:40:10;20.30;93.00
48206;DHT22;33995;48.202;16.260;2023-05-10T14:42:37;20.30;93.00
48206;DHT22;33995;48.202;16.260;2023-05-10T14:45:04;20.40;93.60
48206;DHT22;33995;48.202;16.260;2023-05-10T14:47:31;20.40;92.80
48206;DHT22;33995;48.202;16.260;2023-05-10T14:50:01;20.40;92.90
48206;DHT22;33995;48.202;16.260;2023-05-10T14:52:29;20.30;92.70
48206;DHT22;33995;48.202;16.260;2023-05-10T14:55:01;20.30;92.60
48206;DHT22;33995;48.202;16.260;2023-05-10T14:57:29;20.30;92.40
48206;DHT22;33995;48.202;16.260;2023-05-10T14:59:56;20.40;92.50
48206;DHT22;33995;48.202;16.260;2023-05-10T15:02:24;20.40;92.20
48206;DHT22;33995;48.202;16.260;2023-05-10T15:04:53;20.50;92.10
48206;DHT22;33995;48.202;16.260;2023-05-10T15:07:21;20.50;91.80
48206;DHT22;33995;48.202;16.260;2023-05-10T15:09:48;20.40;92.10
48206;DHT22;33995;48.202;16.260;2023-05-10T15:12:16;20.40;92.30
48206;DHT22;33995;48.202;16.260;2023-05-10T15:14:45;20.40;92.50
48206;DHT22;33995;48.202;16.260;2023-05-10T15:17:14;20.40;92.30
48206;DHT22;33995;48.202;16.260;2023-05-10T15:19:42;20.40;92.30
48206;DHT22;33995;48.202;16.260;2023-05-10T15:22:11;20.30;92.30
48206;DHT22;33995;48.202;16.260;2023-05-10T15:24:38;20.30;92.30
48206;DHT22;33995;48.202;16.260;2023-05-10T15:27:05;20.30;92.60
48206;DHT22;33995;48.202;16.260;2023-05-10T15:29:34;20.30;92.50
48206;DHT22;33995;48.202;16.260;2023-05-10T15:32:04;20.30;92.30
48206;DHT22;33995;48.202;16.260;2023-05-10T15:34:35;20.30;92.50
48206;DHT22;33995;48.202;16.260;2023-05-10T15:37:03;20.10;92.30
48206;DHT22;33995;48.202;16.260;2023-05-10T15:39:32;20.10;92.40
48206;DHT22;33995;48.202;16.260;2023-05-10T15:41:59;20.00;92.20
48206;DHT22;33995;48.202;16.260;2023-05-10T15:44:28;20.10;92.40
48206;DHT22;33995;48.202;16.260;2023-05-10T15:46:55;20.00;92.70
48206;DHT22;33995;48.202;16.260;2023-05-10T15:49:25;20.00;92.80
48206;DHT22;33995;48.202;16.260;2023-05-10T15:51:53;19.90;93.30
48206;DHT22;33995;48.202;16.260;2023-05-10T15:54:20;19.90;93.60
48206;DHT22;33995;48.202;16.260;2023-05-10T15:56:47;19.80;93.60